Forside
METAR-TAF:

METAR-TAF

Lufthavne :

Irkutsk, Rusland

Breddekreds: 52-16N, længdekreds: 104-19E, højde: 513 m

Aktuelle vejr

Denne rapport blev lavet for 15 minutter siden, kl. 02:30 UTC
Vind 4 kt fra syd, varierende mellem sydøst og vest
Temperatur 17°C
Fugtighed 55%
Tryk 1017 hPa
Sigt 10 km eller mere
ingen skyer under 1500m og ingen cumulonimbus

METAR: UIII 160230Z 19002MPS 140V260 CAVOK 17/08 Q1017 R30/60D NOSIG RMK QFE718/0958

Tid: 10:45 (02:45 UTC)

Vejrudsigter

Denne rapport blev lavet for 45 minutter siden, kl. 02:00 UTC
Foreløbig gælder fra 16 på 03 UTC til 17 på 03 UTC
Vind 6 kt fra sydsydøst
Sigt 10 km eller mere
ændring
fra 16 på 04 UTC til 16 på 06 UTC
Vind 10 kt fra vestnordvest
Spredte skyer i en højde af 2000 ft, Cumulonimbus.

TAF: UIII 160200Z 1603/1703 16003MPS 9999 NSC BECMG 1604/1606 30005MPS SCT020CB

Vejrobservationer og prognoser fra mere end 4000 lufthavne (METAR og TAF).

De gule og røde prikker repræsenterer de meteorologiske stationer.

Flyt musen over at se navnet på stationen.

Så klik over at se vejr observationer og prognoser.

At skifte det kort: Klik på de grønne knapper med et sort kors for at zoome ind; på den grønne knap med en bindestreg for at zoome ud; eller på de grønne pile for tilstødende kort.


METAR-TAF: